createdAt,value
2018-11-26T00:01:17.410Z,98.64
2018-11-26T00:03:46.334Z,99.17
2018-11-26T00:06:15.270Z,99.66
2018-11-26T00:08:44.280Z,99.80
2018-11-26T00:11:30.376Z,99.75
2018-11-26T00:13:59.358Z,99.68
2018-11-26T00:16:28.341Z,100.00
2018-11-26T00:18:57.394Z,100.00
2018-11-26T00:21:26.353Z,99.97
2018-11-26T00:23:55.333Z,99.77
2018-11-26T00:26:24.266Z,99.60
2018-11-26T00:28:53.247Z,99.94
2018-11-26T00:31:22.410Z,100.00
2018-11-26T00:33:51.703Z,99.46
2018-11-26T00:36:20.742Z,99.60
2018-11-26T00:38:49.671Z,99.55
2018-11-26T00:41:18.602Z,100.00
2018-11-26T00:43:47.629Z,99.76
2018-11-26T00:46:16.537Z,99.58
2018-11-26T00:48:45.484Z,99.62
2018-11-26T00:51:14.500Z,99.55
2018-11-26T00:53:43.491Z,99.82
2018-11-26T00:56:12.407Z,99.96
2018-11-26T00:58:41.337Z,99.73
2018-11-26T01:01:10.637Z,99.95
2018-11-26T01:03:39.634Z,100.00
2018-11-26T01:06:08.625Z,100.00
2018-11-26T01:08:37.678Z,100.00
2018-11-26T01:11:07.066Z,100.00
2018-11-26T01:13:36.026Z,100.00
2018-11-26T01:16:04.965Z,100.00
2018-11-26T01:18:33.914Z,100.00
2018-11-26T01:21:02.902Z,99.88
2018-11-26T01:23:31.877Z,99.86
2018-11-26T01:26:00.860Z,100.00
2018-11-26T01:28:29.761Z,98.90
2018-11-26T01:30:58.778Z,99.28
2018-11-26T01:33:27.688Z,99.12
2018-11-26T01:35:56.610Z,99.16
2018-11-26T01:38:25.792Z,99.26
2018-11-26T01:40:54.791Z,99.18
2018-11-26T01:43:23.728Z,98.99
2018-11-26T01:45:52.662Z,98.92
2018-11-26T01:48:21.568Z,98.70
2018-11-26T01:50:50.516Z,98.94
2018-11-26T01:53:20.509Z,99.13
2018-11-26T01:55:49.440Z,99.61
2018-11-26T01:58:18.388Z,99.54
2018-11-26T02:00:47.386Z,99.58
2018-11-26T02:03:16.341Z,99.76
2018-11-26T02:05:45.311Z,100.00
2018-11-26T02:08:14.229Z,100.00
2018-11-26T02:10:43.181Z,100.00
2018-11-26T02:13:12.101Z,100.00
2018-11-26T02:15:41.940Z,100.00
2018-11-26T02:18:11.281Z,100.00
2018-11-26T02:20:40.337Z,100.00
2018-11-26T02:23:09.263Z,100.00
2018-11-26T02:25:38.287Z,100.00
2018-11-26T02:28:07.480Z,100.00
2018-11-26T02:30:36.722Z,100.00
2018-11-26T02:33:05.824Z,100.00
2018-11-26T02:35:34.756Z,100.00
2018-11-26T02:38:03.778Z,100.00
2018-11-26T02:40:33.385Z,100.00
2018-11-26T02:43:02.315Z,100.00
2018-11-26T02:45:31.233Z,100.00
2018-11-26T02:48:00.201Z,100.00
2018-11-26T02:50:29.230Z,100.00
2018-11-26T02:52:58.290Z,100.00
2018-11-26T02:55:27.230Z,100.00
2018-11-26T02:57:56.166Z,100.00
2018-11-26T03:00:25.167Z,100.00
2018-11-26T03:02:54.105Z,100.00
2018-11-26T03:05:26.110Z,100.00
2018-11-26T03:07:55.218Z,99.86
2018-11-26T03:10:24.154Z,99.81
2018-11-26T03:12:53.156Z,99.56
2018-11-26T03:15:22.091Z,99.35
2018-11-26T03:17:50.990Z,98.88
2018-11-26T03:20:19.972Z,98.95
2018-11-26T03:22:48.942Z,99.10
2018-11-26T03:25:17.876Z,99.27
2018-11-26T03:27:46.852Z,99.57
2018-11-26T03:30:19.837Z,99.17
2018-11-26T03:32:48.744Z,98.49
2018-11-26T03:35:17.837Z,98.57
2018-11-26T03:37:47.016Z,98.62
2018-11-26T03:40:15.923Z,98.85
2018-11-26T03:42:45.391Z,99.07
2018-11-26T03:45:15.318Z,99.22
2018-11-26T03:47:44.349Z,99.35
2018-11-26T03:50:13.801Z,99.06
2018-11-26T03:52:43.715Z,99.09
2018-11-26T03:55:13.238Z,98.54
2018-11-26T03:57:42.187Z,98.58
2018-11-26T04:00:14.129Z,98.32
2018-11-26T04:02:43.096Z,98.21
2018-11-26T04:05:12.425Z,97.66
2018-11-26T04:07:41.596Z,98.07
2018-11-26T04:10:11.509Z,97.54
2018-11-26T04:12:40.467Z,97.58
2018-11-26T04:15:14.524Z,97.49
2018-11-26T04:17:43.476Z,97.75
2018-11-26T04:20:14.550Z,98.35
2018-11-26T04:22:43.496Z,98.76
2018-11-26T04:25:12.482Z,99.10
2018-11-26T04:27:41.411Z,99.42
2018-11-26T04:30:11.651Z,99.53
2018-11-26T04:32:40.887Z,100.00
2018-11-26T04:35:10.228Z,99.59
2018-11-26T04:37:39.198Z,99.91
2018-11-26T04:40:09.495Z,99.15
2018-11-26T04:42:38.507Z,99.05
2018-11-26T04:45:08.797Z,99.18
2018-11-26T04:47:37.789Z,99.05
2018-11-26T04:50:09.329Z,99.18
2018-11-26T04:52:38.502Z,99.24
2018-11-26T04:55:08.592Z,99.62
2018-11-26T04:57:42.134Z,100.00
2018-11-26T05:00:14.674Z,100.00
2018-11-26T05:02:49.192Z,100.00
2018-11-26T05:05:20.852Z,100.00
2018-11-26T05:07:58.901Z,100.00
2018-11-26T05:10:32.559Z,100.00
2018-11-26T05:13:07.096Z,100.00
2018-11-26T05:15:44.194Z,100.00
2018-11-26T05:18:16.166Z,100.00
2018-11-26T05:20:49.210Z,100.00
2018-11-26T05:23:26.613Z,100.00
2018-11-26T05:26:08.854Z,100.00
2018-11-26T05:28:43.874Z,100.00
2018-11-26T05:31:19.387Z,100.00
2018-11-26T05:33:51.277Z,100.00
2018-11-26T05:36:28.891Z,100.00
2018-11-26T05:39:09.320Z,100.00
2018-11-26T05:41:43.729Z,100.00
2018-11-26T05:44:18.095Z,100.00
2018-11-26T05:46:48.986Z,100.00
2018-11-26T05:49:23.089Z,100.00
2018-11-26T05:51:58.854Z,100.00
2018-11-26T05:54:34.503Z,100.00
2018-11-26T05:57:17.564Z,100.00
2018-11-26T05:59:51.785Z,100.00
2018-11-26T06:02:28.918Z,99.41
2018-11-26T06:05:03.842Z,98.33
2018-11-26T06:07:37.347Z,97.56
2018-11-26T06:12:58.110Z,98.62
2018-11-26T06:18:33.328Z,99.84
2018-11-26T06:21:08.303Z,100.00
2018-11-26T06:23:52.153Z,100.00
2018-11-26T06:26:24.682Z,100.00
2018-11-26T06:28:53.738Z,100.00
2018-11-26T06:31:23.031Z,100.00
2018-11-26T06:33:51.998Z,100.00
2018-11-26T06:36:20.931Z,100.00
2018-11-26T06:38:49.890Z,100.00
2018-11-26T06:41:18.853Z,100.00
2018-11-26T06:43:47.837Z,100.00
2018-11-26T06:46:17.984Z,100.00
2018-11-26T06:48:46.999Z,100.00
2018-11-26T06:51:15.955Z,100.00
2018-11-26T06:53:44.913Z,100.00
2018-11-26T06:56:13.874Z,100.00
2018-11-26T06:58:42.872Z,100.00
2018-11-26T07:01:12.109Z,100.00
2018-11-26T07:03:41.046Z,100.00
2018-11-26T07:06:10.019Z,100.00
2018-11-26T07:08:38.962Z,100.00
2018-11-26T07:11:07.893Z,100.00
2018-11-26T07:13:36.838Z,100.00
2018-11-26T07:16:06.055Z,100.00
2018-11-26T07:18:35.020Z,100.00
2018-11-26T07:21:04.154Z,100.00
2018-11-26T07:23:33.123Z,100.00
2018-11-26T07:26:02.407Z,100.00
2018-11-26T07:28:31.566Z,100.00
2018-11-26T07:31:00.747Z,100.00
2018-11-26T07:33:31.025Z,100.00
2018-11-26T07:36:01.248Z,100.00
2018-11-26T07:38:30.866Z,100.00
2018-11-26T07:40:59.778Z,100.00
2018-11-26T07:43:28.707Z,100.00
2018-11-26T07:45:57.628Z,100.00
2018-11-26T07:48:26.595Z,100.00
2018-11-26T07:50:55.570Z,100.00
2018-11-26T07:53:24.509Z,100.00
2018-11-26T07:55:53.420Z,100.00
2018-11-26T07:58:22.414Z,100.00
2018-11-26T08:00:51.537Z,100.00
2018-11-26T08:03:20.701Z,100.00
2018-11-26T08:05:51.350Z,100.00
2018-11-26T08:08:20.462Z,100.00
2018-11-26T08:10:49.625Z,100.00
2018-11-26T08:13:18.637Z,100.00
2018-11-26T08:15:47.566Z,100.00
2018-11-26T08:18:16.703Z,100.00
2018-11-26T08:20:45.797Z,100.00
2018-11-26T08:23:14.763Z,100.00
2018-11-26T08:25:43.722Z,100.00
2018-11-26T08:28:12.693Z,100.00
2018-11-26T08:30:41.726Z,100.00
2018-11-26T08:33:10.715Z,99.72
2018-11-26T08:35:39.701Z,99.15
2018-11-26T08:38:12.809Z,99.37
2018-11-26T08:40:42.872Z,98.64
2018-11-26T08:43:17.415Z,98.97
2018-11-26T08:45:54.467Z,98.84
2018-11-26T08:48:30.642Z,98.18
2018-11-26T08:51:02.587Z,97.81
2018-11-26T08:53:31.647Z,96.96
2018-11-26T08:56:01.321Z,96.49
2018-11-26T08:58:30.297Z,95.85
2018-11-26T09:01:03.600Z,95.63
2018-11-26T09:03:40.733Z,95.36
2018-11-26T09:06:09.618Z,95.63
2018-11-26T09:08:38.587Z,95.47
2018-11-26T09:11:09.037Z,95.21
2018-11-26T09:13:38.074Z,95.02
2018-11-26T09:16:07.011Z,94.73
2018-11-26T09:18:35.982Z,94.72
2018-11-26T09:21:05.048Z,94.52
2018-11-26T09:23:33.989Z,95.00
2018-11-26T09:26:02.934Z,95.30
2018-11-26T09:28:31.863Z,95.43
2018-11-26T09:31:00.869Z,95.71
2018-11-26T09:33:29.801Z,95.05
2018-11-26T09:35:58.730Z,95.34
2018-11-26T09:38:27.649Z,95.23
2018-11-26T09:40:56.596Z,95.57
2018-11-26T09:43:25.530Z,95.82
2018-11-26T09:45:54.435Z,95.76
2018-11-26T09:48:23.542Z,96.19
2018-11-26T09:50:52.479Z,96.16
2018-11-26T09:53:21.440Z,96.96
2018-11-26T09:55:50.366Z,96.97
2018-11-26T09:58:19.394Z,97.86
2018-11-26T10:00:48.330Z,98.63
2018-11-26T10:03:17.266Z,98.65
2018-11-26T10:05:46.243Z,98.41
2018-11-26T10:08:15.169Z,97.93
2018-11-26T10:10:44.105Z,98.20
2018-11-26T10:13:13.046Z,97.35
2018-11-26T10:15:41.994Z,97.34
2018-11-26T10:18:11.005Z,97.27
2018-11-26T10:20:39.909Z,97.33
2018-11-26T10:23:08.911Z,97.53
2018-11-26T10:25:37.896Z,97.18
2018-11-26T10:28:06.867Z,97.51
2018-11-26T10:30:35.895Z,97.59
2018-11-26T10:33:04.876Z,97.95
2018-11-26T10:35:33.800Z,97.74
2018-11-26T10:38:02.746Z,96.89
2018-11-26T10:40:31.878Z,97.28
2018-11-26T10:43:00.814Z,96.44
2018-11-26T10:45:29.733Z,97.05
2018-11-26T10:47:58.724Z,97.46
2018-11-26T10:50:27.750Z,97.95
2018-11-26T10:52:58.735Z,96.87
2018-11-26T10:55:30.929Z,95.27
2018-11-26T10:57:59.845Z,94.57
2018-11-26T11:00:34.359Z,94.73
2018-11-26T11:03:03.379Z,93.02
2018-11-26T11:05:32.362Z,93.21
2018-11-26T11:08:01.370Z,91.79
2018-11-26T11:10:31.522Z,91.61
2018-11-26T11:13:00.491Z,91.91
2018-11-26T11:15:29.461Z,90.65
2018-11-26T11:17:58.380Z,90.13
2018-11-26T11:20:28.339Z,90.83
2018-11-26T11:22:57.290Z,90.74
2018-11-26T11:25:26.297Z,89.58
2018-11-26T11:27:56.384Z,90.69
2018-11-26T11:30:25.889Z,91.21
2018-11-26T11:32:54.777Z,90.46
2018-11-26T11:35:23.723Z,89.88
2018-11-26T11:37:53.341Z,90.52
2018-11-26T11:40:28.944Z,90.00
2018-11-26T11:42:58.688Z,89.24
2018-11-26T11:45:28.427Z,89.67
2018-11-26T11:47:57.396Z,89.25
2018-11-26T11:50:26.397Z,89.34
2018-11-26T11:52:55.307Z,89.53
2018-11-26T11:55:25.549Z,90.05
2018-11-26T11:57:54.507Z,88.80
2018-11-26T12:00:32.962Z,89.43
2018-11-26T12:03:03.192Z,88.66
2018-11-26T12:05:32.124Z,89.43
2018-11-26T12:08:01.077Z,89.44
2018-11-26T12:10:30.064Z,89.25
2018-11-26T12:12:59.025Z,88.69
2018-11-26T12:15:27.959Z,89.80
2018-11-26T12:17:56.900Z,90.42
2018-11-26T12:20:25.875Z,89.81
2018-11-26T12:22:54.832Z,90.10
2018-11-26T12:25:23.824Z,90.44
2018-11-26T12:27:52.787Z,90.70
2018-11-26T12:30:23.957Z,90.42
2018-11-26T12:32:52.967Z,90.67
2018-11-26T12:35:21.975Z,90.23
2018-11-26T12:37:51.631Z,90.19
2018-11-26T12:40:22.269Z,90.12
2018-11-26T12:42:58.016Z,91.26
2018-11-26T12:45:30.798Z,90.62
2018-11-26T12:47:59.787Z,90.47
2018-11-26T12:50:28.866Z,90.89
2018-11-26T12:52:57.816Z,91.52
2018-11-26T12:55:26.815Z,89.98
2018-11-26T12:57:56.496Z,90.03
2018-11-26T13:00:28.558Z,89.51
2018-11-26T13:03:03.393Z,90.32
2018-11-26T13:05:32.305Z,89.62
2018-11-26T13:08:01.268Z,89.34
2018-11-26T13:10:30.284Z,88.21
2018-11-26T13:12:59.289Z,89.81
2018-11-26T13:15:29.190Z,90.16
2018-11-26T13:17:58.884Z,89.30
2018-11-26T13:20:29.413Z,89.23
2018-11-26T13:22:58.455Z,89.34
2018-11-26T13:25:30.903Z,89.42
2018-11-26T13:28:01.921Z,89.37
2018-11-26T13:30:41.303Z,87.99
2018-11-26T13:33:12.740Z,87.32
2018-11-26T13:35:41.726Z,86.81
2018-11-26T13:38:10.747Z,86.88
2018-11-26T13:40:39.721Z,87.37
2018-11-26T13:43:09.817Z,87.36
2018-11-26T13:45:42.273Z,87.98
2018-11-26T13:48:12.540Z,88.04
2018-11-26T13:50:43.493Z,88.25
2018-11-26T13:53:13.167Z,88.94
2018-11-26T13:55:42.878Z,88.01
2018-11-26T13:58:11.903Z,88.42
2018-11-26T14:00:40.947Z,88.27
2018-11-26T14:03:09.863Z,88.79
2018-11-26T14:05:39.316Z,89.22
2018-11-26T14:08:08.321Z,87.96
2018-11-26T14:10:37.256Z,88.50
2018-11-26T14:13:11.954Z,89.47
2018-11-26T14:15:40.986Z,87.98
2018-11-26T14:18:09.909Z,88.27
2018-11-26T14:20:39.003Z,87.85
2018-11-26T14:23:08.233Z,87.74
2018-11-26T14:25:37.199Z,88.03
2018-11-26T14:28:06.868Z,89.08
2018-11-26T14:30:36.680Z,88.52
2018-11-26T14:33:06.462Z,88.25
2018-11-26T14:35:35.469Z,88.29
2018-11-26T14:38:06.216Z,89.22
2018-11-26T14:40:36.975Z,89.64
2018-11-26T14:43:05.937Z,89.63
2018-11-26T14:45:34.872Z,90.05
2018-11-26T14:48:03.855Z,90.47
2018-11-26T14:50:32.825Z,91.31
2018-11-26T14:53:04.773Z,90.80
2018-11-26T14:55:35.217Z,90.84
2018-11-26T14:58:04.236Z,91.23
2018-11-26T15:00:33.191Z,91.58
2018-11-26T15:03:03.026Z,91.67
2018-11-26T15:05:32.839Z,91.84
2018-11-26T15:08:01.843Z,91.79
2018-11-26T15:10:30.843Z,92.14
2018-11-26T15:12:59.817Z,91.78
2018-11-26T15:15:28.797Z,91.37
2018-11-26T15:17:57.712Z,90.56
2018-11-26T15:20:28.134Z,90.33
2018-11-26T15:22:58.281Z,90.96
2018-11-26T15:25:28.344Z,90.75
2018-11-26T15:27:58.553Z,90.33
2018-11-26T15:30:27.556Z,90.59
2018-11-26T15:32:57.059Z,90.12
2018-11-26T15:35:27.313Z,88.95
2018-11-26T15:37:57.238Z,89.36
2018-11-26T15:40:27.052Z,88.86
2018-11-26T15:42:56.239Z,88.95
2018-11-26T15:45:26.260Z,89.12
2018-11-26T15:47:56.447Z,88.85
2018-11-26T15:50:25.423Z,88.69
2018-11-26T15:52:54.503Z,88.62
2018-11-26T15:55:23.491Z,89.47
2018-11-26T15:57:52.509Z,88.34
2018-11-26T16:00:22.775Z,88.21
2018-11-26T16:02:52.177Z,88.88
2018-11-26T16:05:22.462Z,87.97
2018-11-26T16:07:52.002Z,87.88
2018-11-26T16:10:20.951Z,87.50
2018-11-26T16:12:52.033Z,87.59
2018-11-26T16:15:26.830Z,87.46
2018-11-26T16:17:57.554Z,88.48
2018-11-26T16:20:27.254Z,88.12
2018-11-26T16:22:57.458Z,86.78
2018-11-26T16:25:26.654Z,86.94
2018-11-26T16:27:55.643Z,87.49
2018-11-26T16:30:24.635Z,88.23
2018-11-26T16:32:55.937Z,87.61
2018-11-26T16:35:33.046Z,88.03
2018-11-26T16:38:02.106Z,87.83
2018-11-26T16:40:31.036Z,88.34
2018-11-26T16:42:59.987Z,88.11
2018-11-26T16:45:29.128Z,87.91
2018-11-26T16:47:58.978Z,88.10
2018-11-26T16:50:32.578Z,88.23
2018-11-26T16:53:01.560Z,88.52
2018-11-26T16:55:30.535Z,88.03
2018-11-26T16:57:59.480Z,89.67
2018-11-26T17:00:29.775Z,88.55
2018-11-26T17:03:01.560Z,88.12
2018-11-26T17:05:36.519Z,87.55
2018-11-26T17:08:07.016Z,88.36
2018-11-26T17:10:35.941Z,88.03
2018-11-26T17:13:05.269Z,88.39
2018-11-26T17:15:34.338Z,88.33
2018-11-26T17:18:03.366Z,87.83
2018-11-26T17:20:32.349Z,89.19
2018-11-26T17:23:01.654Z,88.18
2018-11-26T17:25:31.193Z,88.57
2018-11-26T17:28:00.113Z,88.30
2018-11-26T17:30:29.158Z,87.55
2018-11-26T17:33:00.341Z,87.83
2018-11-26T17:35:29.830Z,87.15
2018-11-26T17:37:58.838Z,88.11
2018-11-26T17:40:28.074Z,87.87
2018-11-26T17:42:57.102Z,87.65
2018-11-26T17:45:26.555Z,86.16
2018-11-26T17:47:56.772Z,87.09
2018-11-26T17:50:28.012Z,86.57
2018-11-26T17:52:57.113Z,87.14
2018-11-26T17:55:26.075Z,87.17
2018-11-26T17:57:55.509Z,87.23
2018-11-26T18:00:26.327Z,87.46
2018-11-26T18:02:55.284Z,86.72
2018-11-26T18:05:26.634Z,86.92
2018-11-26T18:07:59.265Z,86.65
2018-11-26T18:10:28.282Z,86.89
2018-11-26T18:12:57.276Z,87.07
2018-11-26T18:15:26.323Z,87.09
2018-11-26T18:17:55.347Z,87.92
2018-11-26T18:20:24.332Z,87.62
2018-11-26T18:22:54.224Z,87.88
2018-11-26T18:25:24.032Z,87.30
2018-11-26T18:27:58.166Z,87.88
2018-11-26T18:30:29.378Z,87.97
2018-11-26T18:32:58.818Z,87.71
2018-11-26T18:35:28.323Z,87.42
2018-11-26T18:37:57.402Z,88.03
2018-11-26T18:40:26.436Z,87.38
2018-11-26T18:42:55.428Z,86.98
2018-11-26T18:45:24.379Z,86.96
2018-11-26T18:47:53.399Z,86.95
2018-11-26T18:50:22.452Z,85.03
2018-11-26T18:52:52.029Z,84.32
2018-11-26T18:55:21.042Z,84.50
2018-11-26T18:57:50.331Z,84.06
2018-11-26T19:00:23.608Z,84.56
2018-11-26T19:02:53.420Z,84.00
2018-11-26T19:05:22.413Z,84.37
2018-11-26T19:07:52.232Z,84.42
2018-11-26T19:10:23.867Z,85.32
2018-11-26T19:12:57.411Z,85.00
2018-11-26T19:15:29.455Z,83.50
2018-11-26T19:18:01.104Z,82.94
2018-11-26T19:20:30.090Z,82.68
2018-11-26T19:22:59.120Z,84.09
2018-11-26T19:25:27.838Z,84.03
2018-11-26T19:27:56.872Z,84.07
2018-11-26T19:30:26.474Z,84.38
2018-11-26T19:32:55.520Z,84.81
2018-11-26T19:35:24.570Z,84.66
2018-11-26T19:37:53.612Z,85.09
2018-11-26T19:40:22.679Z,86.29
2018-11-26T19:42:51.884Z,86.18
2018-11-26T19:45:21.560Z,86.37
2018-11-26T19:47:50.869Z,86.22
2018-11-26T19:50:24.239Z,86.07
2018-11-26T19:52:54.148Z,86.58
2018-11-26T19:55:24.219Z,86.08
2018-11-26T19:57:54.338Z,86.50
2018-11-26T20:00:24.532Z,85.69
2018-11-26T20:02:59.343Z,86.43
2018-11-26T20:05:36.691Z,87.11
2018-11-26T20:08:06.260Z,86.09
2018-11-26T20:10:35.226Z,86.99
2018-11-26T20:13:04.299Z,86.63
2018-11-26T20:15:33.349Z,86.72
2018-11-26T20:18:02.357Z,86.42
2018-11-26T20:20:31.345Z,86.63
2018-11-26T20:23:00.388Z,86.96
2018-11-26T20:25:29.406Z,86.40
2018-11-26T20:27:58.386Z,87.00
2018-11-26T20:30:27.414Z,87.29
2018-11-26T20:32:57.372Z,87.49
2018-11-26T20:35:26.378Z,87.08
2018-11-26T20:37:55.375Z,87.23
2018-11-26T20:40:24.433Z,86.66
2018-11-26T20:42:54.730Z,86.21
2018-11-26T20:45:23.795Z,86.83
2018-11-26T20:47:53.884Z,86.30
2018-11-26T20:50:24.696Z,86.20
2018-11-26T20:52:53.698Z,86.55
2018-11-26T20:55:23.724Z,86.25
2018-11-26T20:57:54.067Z,86.99
2018-11-26T21:00:26.262Z,87.11
2018-11-26T21:03:00.914Z,86.97
2018-11-26T21:05:29.952Z,86.39
2018-11-26T21:07:58.887Z,86.78
2018-11-26T21:10:27.871Z,86.47
2018-11-26T21:12:56.933Z,86.49
2018-11-26T21:15:25.964Z,86.42
2018-11-26T21:17:56.162Z,86.67
2018-11-26T21:20:33.358Z,86.51
2018-11-26T21:23:02.815Z,87.02
2018-11-26T21:25:31.986Z,86.93
2018-11-26T21:28:00.959Z,86.66
2018-11-26T21:30:30.227Z,86.19
2018-11-26T21:32:59.427Z,86.03
2018-11-26T21:35:28.388Z,86.84
2018-11-26T21:37:57.378Z,86.81
2018-11-26T21:40:26.544Z,87.34
2018-11-26T21:42:55.528Z,87.86
2018-11-26T21:45:29.511Z,88.09
2018-11-26T21:47:58.496Z,87.45
2018-11-26T21:50:27.572Z,87.58
2018-11-26T21:52:56.739Z,88.91
2018-11-26T21:55:26.011Z,89.00
2018-11-26T21:57:55.703Z,88.73
2018-11-26T22:00:28.274Z,88.76
2018-11-26T22:02:57.874Z,87.80
2018-11-26T22:05:29.755Z,88.27
2018-11-26T22:07:58.743Z,87.83
2018-11-26T22:10:27.702Z,87.30
2018-11-26T22:12:56.763Z,88.02
2018-11-26T22:15:25.824Z,88.24
2018-11-26T22:17:54.829Z,88.26
2018-11-26T22:20:26.105Z,87.87
2018-11-26T22:22:55.060Z,87.88
2018-11-26T22:25:24.044Z,86.94
2018-11-26T22:27:54.168Z,86.86
2018-11-26T22:30:25.583Z,86.86
2018-11-26T22:32:54.926Z,86.61
2018-11-26T22:35:24.636Z,87.22
2018-11-26T22:37:53.632Z,87.61
2018-11-26T22:40:23.981Z,86.50
2018-11-26T22:42:53.157Z,86.43
2018-11-26T22:45:27.989Z,85.93
2018-11-26T22:48:04.554Z,85.89
2018-11-26T22:50:33.532Z,86.55
2018-11-26T22:53:02.422Z,86.21
2018-11-26T22:55:31.437Z,86.67
2018-11-26T22:58:00.360Z,86.03
2018-11-26T23:00:37.196Z,85.74
2018-11-26T23:03:06.421Z,86.43
2018-11-26T23:05:35.611Z,86.74
2018-11-26T23:08:05.112Z,86.09
2018-11-26T23:10:34.630Z,86.53
2018-11-26T23:13:03.536Z,85.93
2018-11-26T23:15:32.588Z,86.23
2018-11-26T23:18:01.654Z,86.87
2018-11-26T23:20:30.616Z,86.85
2018-11-26T23:22:59.565Z,85.86
2018-11-26T23:25:28.530Z,86.45
2018-11-26T23:27:57.464Z,86.52
2018-11-26T23:30:27.824Z,86.18
2018-11-26T23:32:58.938Z,87.71
2018-11-26T23:35:27.873Z,86.06
2018-11-26T23:37:56.876Z,86.18
2018-11-26T23:40:25.840Z,86.82
2018-11-26T23:42:55.641Z,85.99
2018-11-26T23:45:26.523Z,85.54
2018-11-26T23:47:55.447Z,85.54
2018-11-26T23:50:24.511Z,86.49
2018-11-26T23:52:53.549Z,87.34
2018-11-26T23:55:23.467Z,86.53
2018-11-26T23:57:52.777Z,86.51
